createdAt,value
2022-12-13T00:00:10.330Z,100179.41
2022-12-13T00:04:14.934Z,100172.00
2022-12-13T00:08:16.874Z,100159.59
2022-12-13T00:12:18.569Z,100156.72
2022-12-13T00:16:22.820Z,100158.84
2022-12-13T00:20:24.483Z,100158.19
2022-12-13T00:24:26.086Z,100152.69
2022-12-13T00:28:27.592Z,100151.66
2022-12-13T00:32:29.131Z,100147.81
2022-12-13T00:36:30.719Z,100142.56
2022-12-13T00:40:32.235Z,100148.34
2022-12-13T00:44:33.735Z,100160.63
2022-12-13T00:48:35.312Z,100150.47
2022-12-13T00:52:36.958Z,100146.97
2022-12-13T00:56:38.603Z,100149.97
2022-12-13T01:00:40.155Z,100145.72
2022-12-13T01:04:41.716Z,100138.44
2022-12-13T01:08:44.123Z,100140.19
2022-12-13T01:12:47.180Z,100132.81
2022-12-13T01:16:48.898Z,100146.84
2022-12-13T01:21:04.960Z,100140.94
2022-12-13T01:25:09.119Z,100138.31
2022-12-13T01:29:11.381Z,100144.19
2022-12-13T01:33:14.553Z,100146.59
2022-12-13T01:37:17.565Z,100148.94
2022-12-13T01:41:21.409Z,100137.19
2022-12-13T01:45:29.119Z,100136.19
2022-12-13T01:49:30.649Z,100142.69
2022-12-13T01:53:36.864Z,100139.66
2022-12-13T01:57:45.724Z,100131.50
2022-12-13T02:01:50.644Z,100128.00
2022-12-13T02:06:13.245Z,100127.97
2022-12-13T02:10:14.802Z,100125.22
2022-12-13T02:14:17.044Z,100118.94
2022-12-13T02:19:00.890Z,100116.09
2022-12-13T02:23:25.521Z,100118.41
2022-12-13T02:27:42.542Z,100125.03
2022-12-13T02:32:05.550Z,100128.16
2022-12-13T02:36:21.035Z,100129.47
2022-12-13T02:40:38.533Z,100121.34
2022-12-13T02:44:47.718Z,100121.22
2022-12-13T02:48:52.678Z,100124.22
2022-12-13T02:52:55.714Z,100123.31
2022-12-13T02:56:59.147Z,100130.34
2022-12-13T03:01:29.097Z,100125.19
2022-12-13T03:06:00.514Z,100120.16
2022-12-13T03:10:20.560Z,100112.53
2022-12-13T03:14:23.673Z,100114.81
2022-12-13T03:18:28.090Z,100113.91
2022-12-13T03:22:33.986Z,100111.31
2022-12-13T03:26:41.157Z,100104.91
2022-12-13T03:30:42.683Z,100109.25
2022-12-13T03:34:46.759Z,100104.34
2022-12-13T03:38:53.053Z,100102.81
2022-12-13T03:42:54.655Z,100102.97
2022-12-13T03:46:56.371Z,100109.84
2022-12-13T03:51:02.849Z,100104.09
2022-12-13T03:55:04.820Z,100102.09
2022-12-13T03:59:06.316Z,100102.56
2022-12-13T04:03:07.971Z,100099.34
2022-12-13T04:07:21.969Z,100097.34
2022-12-13T04:11:43.476Z,100093.38
2022-12-13T04:15:48.950Z,100098.06
2022-12-13T04:19:50.715Z,100094.09
2022-12-13T04:23:52.295Z,100092.97
2022-12-13T04:27:53.798Z,100096.84
2022-12-13T04:31:55.340Z,100089.44
2022-12-13T04:35:56.920Z,100088.56
2022-12-13T04:40:00.679Z,100084.78
2022-12-13T04:44:04.096Z,100091.50
2022-12-13T04:48:05.970Z,100079.72
2022-12-13T04:52:07.715Z,100083.28
2022-12-13T04:56:09.618Z,100084.91
2022-12-13T05:00:15.896Z,100077.81
2022-12-13T05:04:17.444Z,100073.53
2022-12-13T05:08:19.101Z,100070.66
2022-12-13T05:12:22.352Z,100066.69
2022-12-13T05:16:25.016Z,100072.41
2022-12-13T05:20:26.577Z,100072.66
2022-12-13T05:24:28.252Z,100077.66
2022-12-13T05:28:30.746Z,100078.53
2022-12-13T05:32:43.817Z,100069.19
2022-12-13T05:36:46.229Z,100062.69
2022-12-13T05:40:47.838Z,100060.31
2022-12-13T05:44:49.494Z,100056.13
2022-12-13T05:48:51.064Z,100052.75
2022-12-13T05:52:52.559Z,100060.25
2022-12-13T05:56:54.136Z,100063.09
2022-12-13T06:01:04.712Z,100061.75
2022-12-13T06:05:07.330Z,100051.28
2022-12-13T06:09:08.861Z,100053.28
2022-12-13T06:13:21.645Z,100064.31
2022-12-13T06:17:33.993Z,100067.66
2022-12-13T06:21:41.548Z,100076.53
2022-12-13T06:25:51.520Z,100074.78
2022-12-13T06:29:53.393Z,100075.75
2022-12-13T06:33:54.981Z,100073.25
2022-12-13T06:38:01.085Z,100076.28
2022-12-13T06:42:08.264Z,100086.41
2022-12-13T06:46:10.483Z,100081.63
2022-12-13T06:50:12.321Z,100088.56
2022-12-13T06:54:13.890Z,100080.22
2022-12-13T06:58:15.484Z,100080.00
2022-12-13T07:02:24.847Z,100078.94
2022-12-13T07:06:27.634Z,100078.44
2022-12-13T07:10:32.136Z,100074.81
2022-12-13T07:14:41.076Z,100092.28
2022-12-13T07:18:42.902Z,100095.50
2022-12-13T07:22:49.212Z,100100.50
2022-12-13T07:26:53.008Z,100109.28
2022-12-13T07:30:54.645Z,100115.56
2022-12-13T07:34:56.279Z,100110.13
2022-12-13T07:38:57.906Z,100114.81
2022-12-13T07:42:59.484Z,100127.47
2022-12-13T07:47:01.016Z,100121.31
2022-12-13T07:51:06.816Z,100125.56
2022-12-13T07:55:08.868Z,100129.47
2022-12-13T07:59:10.944Z,100128.84
2022-12-13T08:03:24.398Z,100119.28
2022-12-13T08:07:27.328Z,100110.06
2022-12-13T08:11:28.931Z,100098.78
2022-12-13T08:15:30.572Z,100105.72
2022-12-13T08:19:32.211Z,100118.50
2022-12-13T08:23:34.138Z,100130.03
2022-12-13T08:27:35.814Z,100116.75
2022-12-13T08:31:44.613Z,100110.69
2022-12-13T08:35:46.623Z,100106.69
2022-12-13T08:39:48.145Z,100108.69
2022-12-13T08:43:49.830Z,100126.63
2022-12-13T08:47:51.420Z,100114.25
2022-12-13T08:51:53.019Z,100118.16
2022-12-13T08:55:54.561Z,100129.06
2022-12-13T08:59:56.087Z,100108.94
2022-12-13T09:03:57.682Z,100112.19
2022-12-13T09:07:59.984Z,100114.84
2022-12-13T09:12:02.982Z,100121.59
2022-12-13T09:16:23.107Z,100125.72
2022-12-13T09:20:28.605Z,100125.97
2022-12-13T09:24:36.653Z,100122.25
2022-12-13T09:28:38.972Z,100131.13
2022-12-13T09:32:40.950Z,100120.09
2022-12-13T09:36:42.489Z,100129.63
2022-12-13T09:40:47.654Z,100128.00
2022-12-13T09:45:03.311Z,100125.66
2022-12-13T09:49:14.643Z,100121.00
2022-12-13T09:53:24.896Z,100118.13
2022-12-13T09:57:35.520Z,100120.63
2022-12-13T10:01:37.148Z,100113.75
2022-12-13T10:05:40.422Z,100119.25
2022-12-13T10:09:42.165Z,100109.75
2022-12-13T10:13:49.272Z,100107.88
2022-12-13T10:17:55.270Z,100104.38
2022-12-13T10:22:01.333Z,100100.59
2022-12-13T10:26:09.782Z,100089.94
2022-12-13T10:30:29.243Z,100075.41
2022-12-13T10:34:36.221Z,100080.19
2022-12-13T10:38:45.916Z,100074.00
2022-12-13T10:43:06.633Z,100076.41
2022-12-13T10:47:10.922Z,100064.34
2022-12-13T10:51:21.950Z,100055.19
2022-12-13T10:55:28.875Z,100048.84
2022-12-13T10:59:38.939Z,100045.31
2022-12-13T11:03:40.535Z,100040.53
2022-12-13T11:07:42.607Z,100031.63
2022-12-13T11:11:44.864Z,100024.34
2022-12-13T11:15:46.573Z,100020.41
2022-12-13T11:19:53.637Z,100023.28
2022-12-13T11:24:01.511Z,100027.13
2022-12-13T11:28:26.864Z,100015.81
2022-12-13T11:32:59.288Z,100009.84
2022-12-13T11:37:22.450Z,100014.47
2022-12-13T11:41:32.552Z,100008.81
2022-12-13T11:45:46.553Z,100007.41
2022-12-13T11:49:49.638Z,99995.84
2022-12-13T11:54:02.377Z,99994.31
2022-12-13T11:58:22.927Z,99978.75
2022-12-13T12:02:41.963Z,99981.06
2022-12-13T12:07:31.844Z,99990.91
2022-12-13T12:12:05.740Z,99987.97
2022-12-13T12:16:25.795Z,99984.59
2022-12-13T12:20:47.663Z,99986.78
2022-12-13T12:24:55.685Z,99986.28
2022-12-13T12:29:01.438Z,99978.81
2022-12-13T12:33:15.443Z,99970.06
2022-12-13T12:37:29.818Z,99961.25
2022-12-13T12:41:45.560Z,99961.94
2022-12-13T12:45:58.831Z,99968.28
2022-12-13T12:50:31.309Z,99967.28
2022-12-13T12:55:05.817Z,99959.75
2022-12-13T12:59:37.386Z,99962.59
2022-12-13T13:03:42.120Z,99955.41
2022-12-13T13:07:52.696Z,99953.97
2022-12-13T13:11:57.369Z,99952.25
2022-12-13T13:15:59.395Z,99945.44
2022-12-13T13:20:21.031Z,99950.25
2022-12-13T13:24:23.941Z,99955.84
2022-12-13T13:28:25.493Z,99954.28
2022-12-13T13:32:30.437Z,99961.38
2022-12-13T13:36:44.926Z,99944.44
2022-12-13T13:40:46.513Z,99949.38
2022-12-13T13:44:59.736Z,99944.34
2022-12-13T13:49:09.932Z,99948.50
2022-12-13T13:53:23.725Z,99950.81
2022-12-13T14:02:32.959Z,99945.97
2022-12-13T14:06:50.119Z,99945.97
2022-12-13T14:11:18.725Z,99943.13
2022-12-13T14:15:51.234Z,99948.69
2022-12-13T14:20:12.248Z,99937.97
2022-12-13T14:24:29.445Z,99944.28
2022-12-13T14:28:49.896Z,99941.78
2022-12-13T14:32:52.414Z,99947.81
2022-12-13T14:36:58.507Z,99945.50
2022-12-13T14:41:02.473Z,99933.31
2022-12-13T14:45:23.385Z,99943.66
2022-12-13T14:49:27.369Z,99939.75
2022-12-13T14:53:37.165Z,99947.38
2022-12-13T14:57:38.720Z,99940.06
2022-12-13T15:01:41.377Z,99936.81
2022-12-13T15:05:50.982Z,99916.59
2022-12-13T15:10:01.924Z,99910.69
2022-12-13T15:14:09.719Z,99893.13
2022-12-13T15:18:25.239Z,99878.34
2022-12-13T15:22:36.323Z,99877.81
2022-12-13T15:26:45.197Z,99885.22
2022-12-13T15:30:47.384Z,99892.00
2022-12-13T15:34:51.234Z,99886.75
2022-12-13T15:38:55.569Z,99868.31
2022-12-13T15:42:57.689Z,99856.31
2022-12-13T15:47:08.527Z,99870.16
2022-12-13T15:51:12.387Z,99854.66
2022-12-13T15:55:14.041Z,99860.31
2022-12-13T15:59:28.608Z,99865.13
2022-12-13T16:03:42.468Z,99853.31
2022-12-13T16:07:44.207Z,99837.91
2022-12-13T16:11:52.015Z,99832.25
2022-12-13T16:16:08.771Z,99841.00
2022-12-13T16:20:15.887Z,99846.44
2022-12-13T16:24:17.436Z,99842.63
2022-12-13T16:28:19.040Z,99827.13
2022-12-13T16:32:20.866Z,99840.03
2022-12-13T16:36:22.493Z,99838.59
2022-12-13T16:40:30.225Z,99838.06
2022-12-13T16:44:37.450Z,99843.31
2022-12-13T16:48:39.050Z,99842.00
2022-12-13T16:52:40.804Z,99854.00
2022-12-13T16:56:42.923Z,99855.88
2022-12-13T17:00:45.110Z,99864.38
2022-12-13T17:04:46.680Z,99853.56
2022-12-13T17:08:48.426Z,99837.50
2022-12-13T17:12:50.178Z,99842.44
2022-12-13T17:16:51.813Z,99838.19
2022-12-13T17:20:58.395Z,99818.19
2022-12-13T17:25:00.606Z,99812.28
2022-12-13T17:29:02.445Z,99813.16
2022-12-13T17:33:08.571Z,99813.06
2022-12-13T17:37:10.773Z,99805.53
2022-12-13T17:41:13.623Z,99806.41
2022-12-13T17:45:16.842Z,99808.91
2022-12-13T17:49:18.454Z,99797.75
2022-12-13T17:53:23.425Z,99804.31
2022-12-13T17:57:25.233Z,99801.16
2022-12-13T18:01:27.225Z,99808.03
2022-12-13T18:05:28.821Z,99797.22
2022-12-13T18:09:30.419Z,99788.25
2022-12-13T18:13:33.028Z,99789.22
2022-12-13T18:18:09.026Z,99787.72
2022-12-13T18:21:56.654Z,99795.34
2022-12-13T18:26:09.172Z,99776.34
2022-12-13T18:30:11.249Z,99758.63
2022-12-13T18:34:12.936Z,99736.13
2022-12-13T18:38:14.554Z,99720.16
2022-12-13T18:42:16.099Z,99740.38
2022-12-13T18:46:17.668Z,99719.50
2022-12-13T18:50:19.403Z,99730.34
2022-12-13T18:54:21.238Z,99748.47
2022-12-13T18:58:22.772Z,99759.63
2022-12-13T19:02:24.411Z,99748.78
2022-12-13T19:06:27.377Z,99750.63
2022-12-13T19:10:29.053Z,99738.19
2022-12-13T19:14:30.802Z,99717.97
2022-12-13T19:18:32.835Z,99747.38
2022-12-13T19:22:34.389Z,99734.03
2022-12-13T19:26:36.054Z,99730.66
2022-12-13T19:30:38.359Z,99735.28
2022-12-13T19:34:40.019Z,99727.56
2022-12-13T19:38:42.036Z,99709.19
2022-12-13T19:42:43.577Z,99716.03
2022-12-13T19:46:45.346Z,99711.63
2022-12-13T19:50:47.288Z,99701.91
2022-12-13T19:54:49.042Z,99696.81
2022-12-13T19:58:51.264Z,99693.31
2022-12-13T20:02:53.519Z,99690.59
2022-12-13T20:06:55.115Z,99688.63
2022-12-13T20:11:02.748Z,99689.19
2022-12-13T20:15:05.350Z,99680.88
2022-12-13T20:19:07.267Z,99665.91
2022-12-13T20:23:09.235Z,99658.69
2022-12-13T20:27:10.774Z,99657.34
2022-12-13T20:31:14.847Z,99670.13
2022-12-13T20:35:16.712Z,99673.06
2022-12-13T20:39:18.357Z,99662.38
2022-12-13T20:43:19.852Z,99647.41
2022-12-13T20:47:21.368Z,99635.03
2022-12-13T20:51:25.516Z,99633.63
2022-12-13T20:55:27.119Z,99637.00
2022-12-13T20:59:28.640Z,99644.72
2022-12-13T21:03:30.368Z,99629.06
2022-12-13T21:07:58.048Z,99623.28
2022-12-13T21:11:59.656Z,99616.69
2022-12-13T21:16:06.011Z,99608.22
2022-12-13T21:20:08.048Z,99602.50
2022-12-13T21:24:13.269Z,99615.09
2022-12-13T21:28:14.873Z,99606.75
2022-12-13T21:32:16.496Z,99597.75
2022-12-13T21:36:21.331Z,99576.13
2022-12-13T21:40:24.165Z,99581.34
2022-12-13T21:44:25.807Z,99569.81
2022-12-13T21:48:27.355Z,99570.50
2022-12-13T21:52:29.896Z,99557.19
2022-12-13T21:56:50.228Z,99551.09
2022-12-13T22:00:51.807Z,99538.28
2022-12-13T22:04:58.174Z,99535.91
2022-12-13T22:08:59.739Z,99528.47
2022-12-13T22:13:01.340Z,99515.97
2022-12-13T22:17:03.502Z,99510.09
2022-12-13T22:21:05.446Z,99492.78
2022-12-13T22:25:08.900Z,99488.03
2022-12-13T22:29:13.676Z,99494.91
2022-12-13T22:33:15.174Z,99486.59
2022-12-13T22:37:16.713Z,99490.25
2022-12-13T22:41:18.757Z,99470.53
2022-12-13T22:45:20.307Z,99453.13
2022-12-13T22:49:22.955Z,99459.50
2022-12-13T22:53:24.465Z,99479.69
2022-12-13T22:57:26.029Z,99470.63
2022-12-13T23:01:32.741Z,99462.88
2022-12-13T23:05:34.336Z,99464.53
2022-12-13T23:09:35.852Z,99483.69
2022-12-13T23:13:37.351Z,99472.94
2022-12-13T23:17:38.822Z,99465.31
2022-12-13T23:21:40.752Z,99449.50
2022-12-13T23:25:42.376Z,99454.53
2022-12-13T23:29:43.892Z,99447.13
2022-12-13T23:33:45.789Z,99465.69
2022-12-13T23:37:48.376Z,99451.47
2022-12-13T23:41:50.184Z,99438.59
2022-12-13T23:45:51.818Z,99456.19
2022-12-13T23:49:53.386Z,99448.34
2022-12-13T23:53:55.017Z,99452.22
2022-12-13T23:57:56.496Z,99443.91
